Time;durP1;ratioP1;P1;durP2;ratioP2;P2;SDS_P1;SDS_P2;PMS_P1;PMS_P2;Temp;Humidity;BMP_temperature;BMP_pressure;BME280_temperature;BME280_humidity;BME280_pressure;Samples;Min_cycle;Max_cycle;Signal;HPM_P1;HPM_P2
2023/03/20 00:00:34;;;;;;;14.98;8.32;;;8.30;99.90;;;;;;5107484;28;20417;-80
2023/03/20 00:03:00;;;;;;;15.52;7.88;;;8.30;99.90;;;;;;5098467;28;20112;-80
2023/03/20 00:05:28;;;;;;;13.57;7.07;;;8.20;99.90;;;;;;5108209;28;20067;-79
2023/03/20 00:07:56;;;;;;;13.63;8.02;;;8.20;99.90;;;;;;5108588;28;20042;-80
2023/03/20 00:10:25;;;;;;;17.08;7.70;;;8.20;99.90;;;;;;5107190;28;20079;-80
2023/03/20 00:12:51;;;;;;;13.90;7.32;;;8.20;99.90;;;;;;5107846;28;20071;-80
2023/03/20 00:15:38;;;;;;;12.50;6.53;;;8.20;99.90;;;;;;5106580;28;20090;-80
2023/03/20 00:18:13;;;;;;;12.85;7.20;;;8.10;99.90;;;;;;5108238;28;20039;-79
2023/03/20 00:20:39;;;;;;;13.57;7.22;;;8.10;99.90;;;;;;5107082;28;20040;-79
2023/03/20 00:23:04;;;;;;;12.73;7.43;;;8.00;99.90;;;;;;5106544;28;20558;-79
2023/03/20 00:25:31;;;;;;;12.95;7.93;;;8.00;99.90;;;;;;5105974;28;20042;-80
2023/03/20 00:27:57;;;;;;;14.13;7.40;;;8.00;99.90;;;;;;5106750;28;20772;-80
2023/03/20 00:30:28;;;;;;;16.30;7.68;;;8.00;99.90;;;;;;5106680;28;20050;-80
2023/03/20 00:32:56;;;;;;;14.82;7.30;;;8.00;99.90;;;;;;5087031;28;20036;-80
2023/03/20 00:35:26;;;;;;;15.55;7.25;;;8.00;99.90;;;;;;5091616;28;20622;-80
2023/03/20 00:37:53;;;;;;;16.60;7.93;;;8.00;99.90;;;;;;5088686;28;20043;-80
2023/03/20 00:40:19;;;;;;;12.90;7.18;;;8.00;99.90;;;;;;5106834;28;20065;-80
2023/03/20 00:42:50;;;;;;;12.52;6.82;;;8.00;99.90;;;;;;5107655;28;20054;-80
2023/03/20 00:45:19;;;;;;;15.68;7.97;;;8.00;99.90;;;;;;5107037;28;20062;-79
2023/03/20 00:47:48;;;;;;;16.02;7.75;;;8.00;99.90;;;;;;5110405;28;20077;-80
2023/03/20 00:50:17;;;;;;;18.35;7.57;;;8.00;99.90;;;;;;5128661;28;20421;-80
2023/03/20 00:52:43;;;;;;;16.48;7.75;;;8.00;99.90;;;;;;5127818;28;20123;-80
2023/03/20 00:55:09;;;;;;;19.00;7.28;;;8.00;99.90;;;;;;5127545;28;20465;-80
2023/03/20 00:57:59;;;;;;;16.35;7.60;;;8.00;99.90;;;;;;5127445;28;20616;-80
2023/03/20 01:00:33;;;;;;;19.27;7.32;;;8.00;99.90;;;;;;5109458;28;20114;-80
2023/03/20 01:02:59;;;;;;;13.45;7.43;;;8.00;99.90;;;;;;5128412;27;20036;-80
2023/03/20 01:05:27;;;;;;;16.38;7.20;;;8.00;99.90;;;;;;5084335;28;20054;-79
2023/03/20 01:07:53;;;;;;;14.32;7.65;;;8.00;99.90;;;;;;5107878;27;20153;-80
2023/03/20 01:10:19;;;;;;;17.63;7.40;;;8.00;99.90;;;;;;5112749;27;20122;-80
2023/03/20 01:12:46;;;;;;;15.68;7.00;;;8.00;99.90;;;;;;5130476;27;20434;-80
2023/03/20 01:15:19;;;;;;;12.60;6.50;;;8.00;99.90;;;;;;5112980;27;20038;-80
2023/03/20 01:17:45;;;;;;;15.82;6.03;;;8.00;99.90;;;;;;5131914;27;20109;-80
2023/03/20 01:20:20;;;;;;;10.77;5.70;;;8.00;99.90;;;;;;5132151;27;20062;-80
2023/03/20 01:22:46;;;;;;;13.82;6.55;;;8.00;99.90;;;;;;5113210;27;20047;-80
2023/03/20 01:25:12;;;;;;;13.25;6.03;;;8.00;99.90;;;;;;5132036;27;20355;-79
2023/03/20 01:27:37;;;;;;;12.05;6.45;;;8.00;99.90;;;;;;5112366;27;20055;-80
2023/03/20 01:30:16;;;;;;;13.60;6.07;;;8.00;99.90;;;;;;5112926;27;20039;-79
2023/03/20 01:32:42;;;;;;;11.00;5.20;;;8.00;99.90;;;;;;5131548;27;20493;-80
2023/03/20 01:35:12;;;;;;;9.57;4.97;;;7.90;99.90;;;;;;5131457;27;20039;-80
2023/03/20 01:37:38;;;;;;;12.93;5.63;;;7.90;99.90;;;;;;5129848;27;20051;-79
2023/03/20 01:40:31;;;;;;;9.57;5.30;;;7.90;99.90;;;;;;5131257;27;20054;-80
2023/03/20 01:42:57;;;;;;;11.13;5.38;;;8.00;99.90;;;;;;5111588;27;20047;-80
2023/03/20 01:45:31;;;;;;;8.77;5.05;;;7.90;99.90;;;;;;5095864;27;20047;-80
2023/03/20 01:47:57;;;;;;;9.05;4.55;;;7.90;99.90;;;;;;5094996;27;20058;-80
2023/03/20 01:50:32;;;;;;;10.48;4.55;;;7.90;99.90;;;;;;5131620;27;20559;-80
2023/03/20 01:53:16;;;;;;;8.00;4.40;;;7.90;99.90;;;;;;5130499;27;20079;-80
2023/03/20 01:55:47;;;;;;;5.97;4.45;;;7.90;99.90;;;;;;5112709;27;20079;-80
2023/03/20 01:58:22;;;;;;;9.88;4.82;;;8.20;99.90;;;;;;5130856;27;20050;-80
2023/03/20 02:00:48;;;;;;;8.07;4.65;;;7.90;99.90;;;;;;5112703;27;20417;-80
2023/03/20 02:03:15;;;;;;;9.68;5.13;;;7.90;99.90;;;;;;5130045;27;20058;-80
2023/03/20 02:05:42;;;;;;;8.98;5.25;;;7.90;99.90;;;;;;5130768;27;20072;-80
2023/03/20 02:08:22;;;;;;;12.82;5.80;;;7.90;99.90;;;;;;5111583;27;20187;-80
2023/03/20 02:10:48;;;;;;;9.20;5.82;;;7.90;99.90;;;;;;5111915;27;20054;-80
2023/03/20 02:13:15;;;;;;;14.45;6.43;;;7.90;99.90;;;;;;5093836;27;20047;-80
2023/03/20 02:16:06;;;;;;;15.25;6.15;;;7.90;99.90;;;;;;5129023;27;20051;-80
2023/03/20 02:18:33;;;;;;;15.70;6.88;;;7.90;99.90;;;;;;5130075;27;20042;-80
2023/03/20 02:21:17;;;;;;;14.27;7.50;;;7.90;99.90;;;;;;5110908;27;20039;-80
2023/03/20 02:24:01;;;;;;;14.43;6.53;;;7.90;99.90;;;;;;5092275;28;21255;-80
2023/03/20 02:26:57;;;;;;;17.50;6.85;;;7.90;99.90;;;;;;5102567;27;20054;-80
2023/03/20 02:29:35;;;;;;;16.45;7.32;;;7.90;99.90;;;;;;5095720;27;20062;-80
2023/03/20 02:32:19;;;;;;;12.63;7.00;;;7.90;99.90;;;;;;5110405;28;20097;-80
2023/03/20 02:35:10;;;;;;;12.77;7.00;;;7.80;99.90;;;;;;5075759;28;20043;-80
2023/03/20 02:37:45;;;;;;;13.95;8.02;;;7.90;99.90;;;;;;5070696;28;20056;-80
2023/03/20 02:40:26;;;;;;;16.63;7.75;;;7.90;99.90;;;;;;5089909;28;20044;-80
2023/03/20 02:43:19;;;;;;;14.80;8.30;;;7.80;99.90;;;;;;5070815;28;20056;-80
2023/03/20 02:45:52;;;;;;;;;;;7.80;99.90;;;;;;5089394;28;20052;-79
2023/03/20 02:48:25;;;;;;;14.75;7.95;;;7.80;99.90;;;;;;5089642;28;20038;-79
2023/03/20 02:51:29;;;;;;;13.95;7.82;;;7.80;99.90;;;;;;5090309;28;20044;-80
2023/03/20 02:54:06;;;;;;;14.95;8.20;;;7.80;99.90;;;;;;5080310;28;20079;-80
2023/03/20 02:56:47;;;;;;;17.95;8.50;;;7.80;99.90;;;;;;5089822;28;20044;-80
2023/03/20 02:59:52;;;;;;;18.65;8.48;;;7.80;99.90;;;;;;5089265;28;20447;-80
2023/03/20 03:02:50;;;;;;;17.63;8.60;;;7.80;99.90;;;;;;5070159;28;20052;-79
2023/03/20 03:05:24;;;;;;;16.52;8.20;;;7.80;99.90;;;;;;5035118;28;20135;-79
2023/03/20 03:07:54;;;;;;;18.48;9.00;;;7.80;99.90;;;;;;5087573;28;20132;-80
2023/03/20 03:10:28;;;;;;;13.95;8.27;;;7.80;99.90;;;;;;5088701;28;20044;-80
2023/03/20 03:12:57;;;;;;;16.92;8.85;;;7.80;99.90;;;;;;5088293;28;20040;-80
2023/03/20 03:15:30;;;;;;;15.65;9.02;;;7.80;99.90;;;;;;5088384;28;20161;-80
2023/03/20 03:17:58;;;;;;;19.25;9.23;;;7.80;99.90;;;;;;5087728;28;20059;-80
2023/03/20 03:20:29;;;;;;;17.20;9.35;;;7.90;99.90;;;;;;5089636;28;20043;-80
2023/03/20 03:22:55;;;;;;;15.57;9.63;;;7.90;99.90;;;;;;5085338;28;20076;-80
2023/03/20 03:25:25;;;;;;;12.98;8.93;;;7.90;99.90;;;;;;5087214;28;20050;-80
2023/03/20 03:28:04;;;;;;;16.60;9.30;;;7.80;99.90;;;;;;5068040;28;20150;-80
2023/03/20 03:30:32;;;;;;;15.63;9.20;;;7.80;99.90;;;;;;5082064;28;20050;-79
2023/03/20 03:33:10;;;;;;;16.67;8.93;;;7.80;99.90;;;;;;5086965;28;20226;-79
2023/03/20 03:35:36;;;;;;;16.02;8.93;;;7.90;99.90;;;;;;5100591;27;20051;-80
2023/03/20 03:38:43;;;;;;;15.80;9.30;;;7.80;99.90;;;;;;5093373;27;20059;-80
2023/03/20 03:41:35;;;;;;;16.83;9.07;;;7.80;99.90;;;;;;5071813;27;20058;-80
2023/03/20 03:44:22;;;;;;;16.50;9.50;;;7.90;99.90;;;;;;5102672;27;20127;-80
2023/03/20 03:46:59;;;;;;;14.38;8.27;;;7.80;99.90;;;;;;5111534;27;20114;-80
2023/03/20 03:49:35;;;;;;;17.83;8.77;;;7.90;99.90;;;;;;5111409;27;20050;-80
2023/03/20 03:52:05;;;;;;;14.90;8.90;;;7.90;99.90;;;;;;5129785;27;20031;-80
2023/03/20 03:54:36;;;;;;;12.75;7.20;;;7.90;99.90;;;;;;5129826;27;20073;-79
2023/03/20 03:57:04;;;;;;;13.45;8.20;;;7.90;99.90;;;;;;5130152;27;20610;-79
2023/03/20 03:59:40;;;;;;;12.50;7.97;;;7.80;99.90;;;;;;5128603;27;20485;-79
2023/03/20 04:02:07;;;;;;;13.65;7.65;;;7.90;99.90;;;;;;5129377;27;20051;-79
2023/03/20 04:04:37;;;;;;;15.50;7.13;;;7.80;99.90;;;;;;5128365;27;20084;-79
2023/03/20 04:07:03;;;;;;;12.90;6.70;;;7.80;99.90;;;;;;5129368;27;20039;-79
2023/03/20 04:09:29;;;;;;;10.63;6.70;;;7.80;99.90;;;;;;5110783;27;20054;-79
2023/03/20 04:11:54;;;;;;;12.63;6.68;;;7.80;99.90;;;;;;5094476;27;20054;-79
2023/03/20 04:14:20;;;;;;;11.90;6.72;;;7.80;99.90;;;;;;5110941;27;20054;-79
2023/03/20 04:16:46;;;;;;;8.98;6.05;;;7.80;99.90;;;;;;5110801;27;20131;-79
2023/03/20 04:19:12;;;;;;;11.80;5.65;;;8.00;99.90;;;;;;5129708;27;20050;-79
2023/03/20 04:21:37;;;;;;;11.27;6.13;;;7.80;99.90;;;;;;5129381;27;20130;-79
2023/03/20 04:24:03;;;;;;;10.32;6.03;;;7.80;99.90;;;;;;5111162;27;20393;-80
2023/03/20 04:26:29;;;;;;;10.85;6.13;;;7.70;99.90;;;;;;5109925;27;20131;-79
2023/03/20 04:28:55;;;;;;;11.02;6.50;;;7.80;99.90;;;;;;5129569;27;20176;-79
2023/03/20 04:31:21;;;;;;;9.45;6.25;;;7.70;99.90;;;;;;5128606;27;20070;-79
2023/03/20 04:33:46;;;;;;;10.05;5.28;;;7.70;99.90;;;;;;5127995;27;20050;-79
2023/03/20 04:36:12;;;;;;;9.23;5.78;;;7.70;99.90;;;;;;5109270;28;20051;-79
2023/03/20 04:38:38;;;;;;;8.45;5.70;;;7.70;99.90;;;;;;5127761;27;20065;-79
2023/03/20 04:41:04;;;;;;;10.85;5.45;;;7.70;99.90;;;;;;5111643;27;20073;-80
2023/03/20 04:43:30;;;;;;;9.25;5.18;;;7.70;99.90;;;;;;5128462;28;20276;-79
2023/03/20 04:45:55;;;;;;;9.95;5.53;;;7.60;99.90;;;;;;5109682;28;20153;-79
2023/03/20 04:48:21;;;;;;;8.77;5.57;;;7.60;99.90;;;;;;5094082;28;20077;-79
2023/03/20 04:50:49;;;;;;;9.45;5.43;;;7.60;99.90;;;;;;5110605;28;20051;-79
2023/03/20 04:53:15;;;;;;;7.30;5.22;;;7.60;99.90;;;;;;5128809;28;20103;-79
2023/03/20 04:55:41;;;;;;;10.13;5.65;;;7.60;99.90;;;;;;5093861;28;20691;-79
2023/03/20 04:58:07;;;;;;;13.65;5.80;;;7.60;99.90;;;;;;5110924;28;20043;-79
2023/03/20 05:00:33;;;;;;;11.07;5.25;;;7.60;99.90;;;;;;5110717;28;20039;-80
2023/03/20 05:02:58;;;;;;;7.65;5.32;;;7.60;99.90;;;;;;5109389;28;20066;-79
2023/03/20 05:05:24;;;;;;;12.27;6.03;;;7.60;99.90;;;;;;5111062;28;20039;-79
2023/03/20 05:07:50;;;;;;;11.48;6.38;;;7.60;99.90;;;;;;5128774;28;20050;-79
2023/03/20 05:10:16;;;;;;;11.25;6.60;;;7.60;99.90;;;;;;5110642;28;20091;-79
2023/03/20 05:12:42;;;;;;;11.27;7.32;;;7.60;99.90;;;;;;5110061;28;20047;-79
2023/03/20 05:15:08;;;;;;;10.57;6.78;;;7.60;99.90;;;;;;5093974;28;20130;-79
2023/03/20 05:17:34;;;;;;;13.52;6.88;;;7.60;99.90;;;;;;5110570;28;20108;-79
2023/03/20 05:19:59;;;;;;;13.02;7.43;;;7.60;99.90;;;;;;5092588;28;21012;-79
2023/03/20 05:22:25;;;;;;;14.77;7.72;;;7.50;99.90;;;;;;5110050;28;20480;-79
2023/03/20 05:24:50;;;;;;;12.50;7.72;;;7.50;99.90;;;;;;5128462;28;20043;-79
2023/03/20 05:27:16;;;;;;;13.52;8.18;;;7.60;99.90;;;;;;5128837;28;20086;-79
2023/03/20 05:29:42;;;;;;;12.93;8.70;;;7.60;99.90;;;;;;5109345;28;20039;-79
2023/03/20 05:32:07;;;;;;;14.73;8.15;;;7.50;99.90;;;;;;5110006;28;20047;-79
2023/03/20 05:34:33;;;;;;;15.82;9.23;;;7.50;99.90;;;;;;5110126;28;20158;-79
2023/03/20 05:36:59;;;;;;;13.63;8.80;;;7.50;99.90;;;;;;5109646;28;20050;-79
2023/03/20 05:39:25;;;;;;;12.77;8.65;;;7.50;99.90;;;;;;5093208;28;20047;-79
2023/03/20 05:41:50;;;;;;;13.75;8.25;;;7.50;99.90;;;;;;5128346;28;20089;-79
2023/03/20 05:44:16;;;;;;;16.63;8.68;;;7.60;99.90;;;;;;5128809;27;20110;-79
2023/03/20 05:46:42;;;;;;;14.60;8.65;;;7.50;99.90;;;;;;5126083;28;20046;-79
2023/03/20 05:49:07;;;;;;;14.68;9.23;;;7.50;99.90;;;;;;5109509;28;20050;-79
2023/03/20 05:51:33;;;;;;;15.48;9.75;;;7.60;99.90;;;;;;5129061;27;20043;-79
2023/03/20 05:53:58;;;;;;;16.13;9.02;;;7.60;99.90;;;;;;5112596;27;20047;-79
2023/03/20 05:56:24;;;;;;;12.55;9.10;;;7.60;99.90;;;;;;5093071;27;20031;-79
2023/03/20 05:58:50;;;;;;;14.30;8.68;;;7.60;99.90;;;;;;5131356;27;20078;-79
2023/03/20 06:01:20;;;;;;;15.40;8.77;;;7.60;99.90;;;;;;5113180;27;20042;-80
2023/03/20 06:03:49;;;;;;;13.02;8.73;;;7.60;99.90;;;;;;5131443;27;20128;-80
2023/03/20 06:06:15;;;;;;;15.07;9.15;;;7.60;99.90;;;;;;5096692;27;20397;-80
2023/03/20 06:08:41;;;;;;;15.70;9.70;;;7.60;99.90;;;;;;5130693;27;20116;-80
2023/03/20 06:11:08;;;;;;;12.13;8.73;;;7.60;99.90;;;;;;5113111;27;20053;-80
2023/03/20 06:13:34;;;;;;;15.07;8.73;;;7.70;99.90;;;;;;5131432;27;20123;-80
2023/03/20 06:15:59;;;;;;;14.70;8.95;;;7.60;99.90;;;;;;5113688;27;20089;-80
2023/03/20 06:18:25;;;;;;;12.98;9.00;;;7.60;99.90;;;;;;5131896;27;20066;-79
2023/03/20 06:20:53;;;;;;;15.30;8.30;;;7.60;99.90;;;;;;5131552;27;20047;-80
2023/03/20 06:23:19;;;;;;;14.98;8.77;;;7.70;99.90;;;;;;5130215;27;20344;-80
2023/03/20 06:25:45;;;;;;;14.35;8.52;;;7.70;99.90;;;;;;5125269;27;20130;-80
2023/03/20 06:28:10;;;;;;;14.25;8.77;;;7.70;99.90;;;;;;5110358;27;20054;-79
2023/03/20 06:30:37;;;;;;;12.90;8.65;;;7.80;99.90;;;;;;5131020;27;20508;-81
2023/03/20 06:33:05;;;;;;;12.68;8.52;;;7.80;99.90;;;;;;5112116;27;20126;-79
2023/03/20 06:35:31;;;;;;;13.57;8.13;;;7.80;99.90;;;;;;5129401;27;20051;-80
2023/03/20 06:37:57;;;;;;;12.32;7.32;;;7.80;99.90;;;;;;5128658;27;20057;-80
2023/03/20 06:40:23;;;;;;;15.80;8.00;;;7.90;99.90;;;;;;5129782;27;20080;-80
2023/03/20 06:42:49;;;;;;;12.57;7.57;;;7.90;99.90;;;;;;5111929;27;20046;-81
2023/03/20 06:45:15;;;;;;;14.30;7.22;;;7.90;99.90;;;;;;5111942;27;20417;-80
2023/03/20 06:47:41;;;;;;;10.77;7.05;;;8.00;99.90;;;;;;5130676;27;20073;-80
2023/03/20 06:50:07;;;;;;;11.40;7.38;;;8.00;99.90;;;;;;5095348;27;20050;-80
2023/03/20 06:52:34;;;;;;;12.48;7.10;;;8.00;99.90;;;;;;5111039;27;20046;-80
2023/03/20 06:55:00;;;;;;;12.82;7.35;;;8.00;99.90;;;;;;5095710;27;20085;-80
2023/03/20 06:57:25;;;;;;;12.57;7.13;;;8.00;99.90;;;;;;5130956;27;20074;-80
2023/03/20 06:59:51;;;;;;;13.02;7.07;;;8.10;99.90;;;;;;5110987;27;20043;-79
2023/03/20 07:02:17;;;;;;;14.05;7.70;;;8.10;99.90;;;;;;5109482;28;20044;-80
2023/03/20 07:04:42;;;;;;;10.30;7.32;;;8.10;99.90;;;;;;5117241;27;20127;-80
2023/03/20 07:07:08;;;;;;;13.18;7.80;;;8.10;99.90;;;;;;5121702;27;20170;-80
2023/03/20 07:09:34;;;;;;;15.27;7.63;;;8.10;99.90;;;;;;5109480;28;20055;-80
2023/03/20 07:12:01;;;;;;;13.80;7.78;;;8.20;99.90;;;;;;5091647;27;20184;-79
2023/03/20 07:14:26;;;;;;;12.02;6.97;;;8.20;99.90;;;;;;5111968;27;20055;-79
2023/03/20 07:16:52;;;;;;;13.05;7.53;;;8.20;99.90;;;;;;5130461;27;20074;-79
2023/03/20 07:19:18;;;;;;;11.70;7.75;;;8.20;99.90;;;;;;5111840;27;20096;-79
2023/03/20 07:21:44;;;;;;;12.95;7.03;;;8.20;99.90;;;;;;5094143;27;20079;-79
2023/03/20 07:24:09;;;;;;;10.55;7.78;;;8.20;99.90;;;;;;5129882;27;20600;-79
2023/03/20 07:26:35;;;;;;;12.77;7.70;;;8.30;99.90;;;;;;5130504;27;20122;-79
2023/03/20 07:29:01;;;;;;;12.77;7.35;;;8.30;99.90;;;;;;5130514;27;20490;-78
2023/03/20 07:31:28;;;;;;;15.13;8.10;;;8.30;99.90;;;;;;5129342;27;20431;-79
2023/03/20 07:33:54;;;;;;;16.08;8.18;;;8.30;99.90;;;;;;5129802;27;20485;-78
2023/03/20 07:36:20;;;;;;;12.43;8.10;;;8.30;99.90;;;;;;5102109;28;20385;-78
2023/03/20 07:38:45;;;;;;;11.90;7.18;;;8.40;99.90;;;;;;5088829;28;20135;-79
2023/03/20 07:41:11;;;;;;;12.18;7.43;;;8.70;99.90;;;;;;5088048;28;20052;-79
2023/03/20 07:43:37;;;;;;;13.48;7.53;;;8.40;99.90;;;;;;5087739;28;20047;-79
2023/03/20 07:46:04;;;;;;;12.45;7.55;;;8.50;99.90;;;;;;5089329;28;20042;-79
2023/03/20 07:48:30;;;;;;;12.82;7.15;;;8.50;99.90;;;;;;5070331;28;20058;-79
2023/03/20 07:50:56;;;;;;;15.68;8.32;;;8.50;99.90;;;;;;5087118;28;20044;-79
2023/03/20 07:53:21;;;;;;;11.05;7.93;;;8.60;99.90;;;;;;5087376;28;20052;-79
2023/03/20 07:55:47;;;;;;;19.05;7.70;;;8.60;99.90;;;;;;5088055;28;20135;-79
2023/03/20 07:58:12;;;;;;;15.43;8.23;;;8.60;99.90;;;;;;5088570;28;20070;-79
2023/03/20 08:00:38;;;;;;;12.43;7.63;;;8.70;99.90;;;;;;5069535;28;20080;-79
2023/03/20 08:03:04;;;;;;;14.98;7.75;;;8.70;99.90;;;;;;5072697;28;20112;-79
2023/03/20 08:05:30;;;;;;;15.18;7.63;;;8.80;99.90;;;;;;5086906;28;20084;-79
2023/03/20 08:07:55;;;;;;;14.82;7.80;;;8.90;99.90;;;;;;5087730;28;20036;-80
2023/03/20 08:10:21;;;;;;;14.23;7.15;;;9.00;99.90;;;;;;5088256;28;20043;-80
2023/03/20 08:12:46;;;;;;;15.02;8.18;;;9.10;99.90;;;;;;5081343;28;20097;-80
2023/03/20 08:15:13;;;;;;;15.60;8.35;;;9.20;99.90;;;;;;5072824;28;20391;-79
2023/03/20 08:17:42;;;;;;;12.63;7.57;;;9.20;99.90;;;;;;5068076;28;20080;-79
2023/03/20 08:20:09;;;;;;;15.30;8.05;;;9.20;99.90;;;;;;5088685;28;20040;-79
2023/03/20 08:22:35;;;;;;;15.13;8.50;;;9.20;99.90;;;;;;5069876;28;20047;-80
2023/03/20 08:25:02;;;;;;;12.55;7.90;;;9.20;99.90;;;;;;5088019;28;20694;-79
2023/03/20 08:27:27;;;;;;;13.98;8.20;;;9.20;99.90;;;;;;5087892;28;20119;-80
2023/03/20 08:29:53;;;;;;;12.60;8.25;;;9.20;99.90;;;;;;5072311;28;20208;-80
2023/03/20 08:32:18;;;;;;;14.00;7.85;;;9.30;99.90;;;;;;5070096;28;20044;-79
2023/03/20 08:34:44;;;;;;;16.55;8.75;;;9.30;99.90;;;;;;5079206;28;20051;-79
2023/03/20 08:37:11;;;;;;;18.88;9.63;;;9.40;99.90;;;;;;5104516;28;20089;-79
2023/03/20 08:39:38;;;;;;;14.43;7.85;;;9.40;99.90;;;;;;5107435;28;20052;-79
2023/03/20 08:42:04;;;;;;;14.20;8.57;;;9.50;99.90;;;;;;5106026;28;20073;-79
2023/03/20 08:44:30;;;;;;;13.45;8.45;;;9.60;99.90;;;;;;5103655;28;20044;-79
2023/03/20 08:46:55;;;;;;;13.90;8.32;;;9.60;99.90;;;;;;5093318;28;20040;-78
2023/03/20 08:49:21;;;;;;;15.77;8.20;;;9.70;99.90;;;;;;5106300;28;20170;-79
2023/03/20 08:51:46;;;;;;;11.80;7.47;;;9.80;99.90;;;;;;5107348;28;20039;-79
2023/03/20 08:54:14;;;;;;;11.30;7.72;;;9.90;99.90;;;;;;5108065;28;20573;-79
2023/03/20 08:56:40;;;;;;;15.23;8.63;;;10.00;99.90;;;;;;5107877;28;20379;-79
2023/03/20 08:59:05;;;;;;;11.02;7.93;;;10.10;99.90;;;;;;5103505;28;20122;-79
2023/03/20 09:01:31;;;;;;;12.65;8.18;;;10.20;99.90;;;;;;5106225;28;20118;-79
2023/03/20 09:03:57;;;;;;;12.95;7.45;;;10.20;99.90;;;;;;5102060;28;20040;-79
2023/03/20 09:06:22;;;;;;;12.82;7.63;;;10.20;99.90;;;;;;5086839;28;20047;-79
2023/03/20 09:08:48;;;;;;;10.93;8.07;;;10.30;99.90;;;;;;5087652;28;20066;-79
2023/03/20 09:11:14;;;;;;;15.27;7.85;;;10.30;99.90;;;;;;5080868;28;20043;-79
2023/03/20 09:13:39;;;;;;;12.75;8.15;;;10.40;99.90;;;;;;5103753;28;20054;-80
2023/03/20 09:16:05;;;;;;;11.10;7.63;;;10.30;99.90;;;;;;5107488;28;20387;-79
2023/03/20 09:18:31;;;;;;;12.23;8.15;;;10.40;99.90;;;;;;5106501;28;20528;-79
2023/03/20 09:20:56;;;;;;;14.88;8.43;;;10.50;99.90;;;;;;5107144;28;20040;-80
2023/03/20 09:23:22;;;;;;;16.00;8.77;;;10.60;99.90;;;;;;5106147;28;20091;-80
2023/03/20 09:25:48;;;;;;;13.60;7.75;;;10.80;99.90;;;;;;5093132;28;20040;-80
2023/03/20 09:28:14;;;;;;;14.90;7.78;;;10.80;99.90;;;;;;5068230;28;20090;-79
2023/03/20 09:30:40;;;;;;;15.23;8.85;;;10.90;99.90;;;;;;5069558;28;20048;-78
2023/03/20 09:33:06;;;;;;;13.13;8.15;;;10.90;99.90;;;;;;5068135;28;20447;-78
2023/03/20 09:35:31;;;;;;;11.88;7.82;;;10.90;99.90;;;;;;5074089;28;20048;-78
2023/03/20 09:37:57;;;;;;;12.05;8.65;;;10.90;99.90;;;;;;5087875;28;20040;-80
2023/03/20 09:40:30;;;;;;;15.00;10.40;;;11.00;99.90;;;;;;5090200;28;20498;-80
2023/03/20 09:43:17;;;;;;;11.95;7.90;;;11.10;99.90;;;;;;5071856;28;20509;-80
2023/03/20 09:45:50;;;;;;;12.05;8.68;;;11.20;99.90;;;;;;5090698;28;20428;-80
2023/03/20 09:48:23;;;;;;;13.50;8.40;;;11.20;99.90;;;;;;5071789;28;20654;-80
2023/03/20 09:51:06;;;;;;;13.00;8.00;;;11.20;99.90;;;;;;5055246;28;20138;-81
2023/03/20 09:53:46;;;;;;;13.18;8.45;;;11.30;99.90;;;;;;5053663;28;20169;-81
2023/03/20 09:56:38;;;;;;;16.08;10.00;;;11.50;99.90;;;;;;5070910;28;20040;-79
2023/03/20 09:59:05;;;;;;;12.85;8.50;;;11.70;99.90;;;;;;5085777;28;20131;-79
2023/03/20 10:01:51;;;;;;;13.13;8.35;;;11.70;99.90;;;;;;5070208;28;20113;-78
2023/03/20 10:04:18;;;;;;;10.82;8.25;;;11.70;99.90;;;;;;5089389;28;20083;-78
2023/03/20 10:06:44;;;;;;;11.35;8.40;;;11.70;99.90;;;;;;5088373;28;20050;-81
2023/03/20 10:09:26;;;;;;;12.48;8.98;;;11.70;99.90;;;;;;5070418;28;20036;-80
2023/03/20 10:11:55;;;;;;;10.32;7.20;;;11.70;99.90;;;;;;5068366;28;20036;-80
2023/03/20 10:14:46;;;;;;;10.95;7.68;;;11.70;99.90;;;;;;5070329;28;20082;-80
2023/03/20 10:17:30;;;;;;;13.40;7.30;;;11.70;99.90;;;;;;5071692;28;20044;-78
2023/03/20 10:20:12;;;;;;;12.32;8.02;;;11.60;99.90;;;;;;5071338;28;20059;-78
2023/03/20 10:22:46;;;;;;;11.30;7.20;;;11.50;99.90;;;;;;5070809;28;20152;-78
2023/03/20 10:25:11;;;;;;;11.30;8.25;;;11.40;99.90;;;;;;5089604;28;20776;-78
2023/03/20 10:27:51;;;;;;;11.68;8.30;;;11.30;99.90;;;;;;5066740;28;20049;-78
2023/03/20 10:30:29;;;;;;;11.77;8.30;;;11.20;99.90;;;;;;5069329;28;20037;-78
2023/03/20 10:33:07;;;;;;;16.95;9.25;;;11.10;99.90;;;;;;5034304;28;20078;-78
2023/03/20 10:35:58;;;;;;;12.77;8.75;;;11.00;99.90;;;;;;5050840;28;20468;-78
2023/03/20 10:38:27;;;;;;;16.13;8.43;;;10.90;99.90;;;;;;5071325;28;20482;-78
2023/03/20 10:40:56;;;;;;;11.45;8.07;;;10.90;99.90;;;;;;5069909;28;20048;-78
2023/03/20 10:43:29;;;;;;;14.15;9.35;;;10.80;99.90;;;;;;5089577;28;20044;-78
2023/03/20 10:46:03;;;;;;;14.63;9.27;;;10.70;99.90;;;;;;5053825;28;20044;-79
2023/03/20 10:48:47;;;;;;;12.75;9.38;;;10.70;99.90;;;;;;5070902;28;20044;-79
2023/03/20 10:51:20;;;;;;;16.15;8.77;;;10.90;99.90;;;;;;5071221;28;20363;-79
2023/03/20 10:53:46;;;;;;;;;;;10.70;99.90;;;;;;5089025;28;20463;-81
2023/03/20 10:56:25;;;;;;;14.48;8.85;;;10.70;99.90;;;;;;5054298;28;20420;-79
2023/03/20 10:59:07;;;;;;;13.40;8.98;;;10.60;99.90;;;;;;5070032;28;20127;-78
2023/03/20 11:01:33;;;;;;;13.15;8.40;;;10.60;99.90;;;;;;5088634;28;20452;-79
2023/03/20 11:03:58;;;;;;;13.35;8.38;;;10.80;99.90;;;;;;5070879;28;20036;-79
2023/03/20 11:06:32;;;;;;;12.23;8.25;;;10.60;99.90;;;;;;5088641;28;20055;-78
2023/03/20 11:09:17;;;;;;;11.98;7.80;;;10.60;99.90;;;;;;5070515;28;20076;-79
2023/03/20 11:11:50;;;;;;;8.43;6.75;;;10.60;99.90;;;;;;5086328;28;20640;-80
2023/03/20 11:14:21;;;;;;;11.45;8.13;;;10.60;99.90;;;;;;5085480;28;20055;-79
2023/03/20 11:16:52;;;;;;;12.02;7.88;;;10.60;99.90;;;;;;5083676;28;20056;-80
2023/03/20 11:19:20;;;;;;;11.38;7.88;;;10.60;99.90;;;;;;5068907;28;20121;-79
2023/03/20 11:21:55;;;;;;;11.40;6.75;;;10.60;99.90;;;;;;5083545;28;20212;-80
2023/03/20 11:24:43;;;;;;;12.18;7.40;;;10.50;99.90;;;;;;5069642;28;20044;-80
2023/03/20 11:27:10;;;;;;;10.48;8.07;;;10.50;99.90;;;;;;5088303;28;20422;-79
2023/03/20 11:29:38;;;;;;;9.68;8.05;;;10.50;99.90;;;;;;5087360;28;20692;-80
2023/03/20 11:32:34;;;;;;;11.98;7.95;;;10.50;99.90;;;;;;5081677;28;20457;-79
2023/03/20 11:35:24;;;;;;;11.85;8.18;;;10.20;99.90;;;;;;5087890;28;20573;-80
2023/03/20 11:37:52;;;;;;;12.15;7.35;;;10.50;99.90;;;;;;5065741;28;20787;-80
2023/03/20 11:40:33;;;;;;;15.27;7.20;;;10.50;99.90;;;;;;5070435;28;20147;-81
2023/03/20 11:42:59;;;;;;;8.93;6.65;;;10.60;99.90;;;;;;5066112;28;20048;-80
2023/03/20 11:45:26;;;;;;;9.32;6.70;;;10.50;99.90;;;;;;5084317;28;20052;-80
2023/03/20 11:47:55;;;;;;;11.48;7.60;;;10.80;99.90;;;;;;5085565;28;20048;-80
2023/03/20 11:50:33;;;;;;;11.85;7.13;;;10.40;99.90;;;;;;5069449;28;20047;-80
2023/03/20 11:53:18;;;;;;;10.50;7.28;;;10.40;99.90;;;;;;5069117;28;20495;-80
2023/03/20 11:56:10;;;;;;;12.75;6.38;;;10.40;99.90;;;;;;5069933;28;20071;-81
2023/03/20 11:58:45;;;;;;;7.82;5.70;;;10.40;99.90;;;;;;5088325;28;20040;-81
2023/03/20 12:01:11;;;;;;;11.20;6.25;;;10.50;99.90;;;;;;5070270;28;20044;-80
2023/03/20 12:03:44;;;;;;;8.65;5.72;;;10.50;99.90;;;;;;5069478;28;20051;-80
2023/03/20 12:06:14;;;;;;;;;;;10.50;99.90;;;;;;5069310;28;20066;-80
2023/03/20 12:08:45;;;;;;;8.50;5.05;;;10.50;99.90;;;;;;5048593;28;20313;-80
2023/03/20 12:11:27;;;;;;;6.82;4.90;;;10.40;99.90;;;;;;5083283;28;20213;-80
2023/03/20 12:13:59;;;;;;;6.47;5.10;;;10.40;99.90;;;;;;5106141;28;20056;-79
2023/03/20 12:16:29;;;;;;;9.77;4.75;;;10.50;99.90;;;;;;5070133;28;20505;-80
2023/03/20 12:18:59;;;;;;;14.05;6.40;;;10.50;99.90;;;;;;5069807;28;20055;-80
2023/03/20 12:21:43;;;;;;;10.30;5.15;;;10.50;99.90;;;;;;5087818;28;20047;-79
2023/03/20 12:24:35;;;;;;;8.68;4.65;;;10.50;99.90;;;;;;5088123;28;20047;-81
2023/03/20 12:27:26;;;;;;;5.53;3.45;;;10.40;99.90;;;;;;5086757;28;20044;-80
2023/03/20 12:30:20;;;;;;;11.77;3.60;;;10.40;99.90;;;;;;5069752;28;20063;-80
2023/03/20 12:33:21;;;;;;;5.15;3.30;;;10.20;99.90;;;;;;5067541;28;20051;-80
2023/03/20 12:35:51;;;;;;;11.05;4.32;;;10.20;99.90;;;;;;5032383;28;20056;-80
2023/03/20 12:38:28;;;;;;;8.88;3.47;;;10.30;99.90;;;;;;5048233;28;20049;-80
2023/03/20 12:41:11;;;;;;;6.30;4.22;;;10.40;99.90;;;;;;5067591;28;20454;-80
2023/03/20 12:43:42;;;;;;;6.07;3.78;;;10.50;99.90;;;;;;5048785;28;20044;-82
2023/03/20 12:46:37;;;;;;;9.93;3.83;;;10.60;99.90;;;;;;5064422;28;20064;-80
2023/03/20 12:49:31;;;;;;;9.45;3.60;;;10.40;99.90;;;;;;5067335;28;20048;-80
2023/03/20 12:52:19;;;;;;;7.65;3.80;;;10.30;99.90;;;;;;5068683;28;20048;-79
2023/03/20 12:55:12;;;;;;;6.80;3.40;;;10.20;99.90;;;;;;5069411;28;20127;-78
2023/03/20 12:57:43;;;;;;;;;;;10.20;99.90;;;;;;5068460;28;20039;-78
2023/03/20 13:00:16;;;;;;;5.20;3.35;;;10.30;99.90;;;;;;5090402;28;19942;-79
2023/03/20 13:03:09;;;;;;;5.53;3.65;;;10.30;99.90;;;;;;5090973;28;20452;-78
2023/03/20 13:06:12;;;;;;;7.03;3.90;;;10.40;99.90;;;;;;5091855;28;20051;-79